Clinton, Maryland
Current Conditions -  °F | °C
As of 6:58 AM on Thursday 23 Oct 2014 (Local Time) from KADW Reporting Station
Overcast Overcast  
Wind Chill: 52°   Ceiling: 3200
Heat Index: 52°   Visibility: 10mi
Dew Point: 43°   Wind: 15mph
Humidity: 70%   Direction: 310°NW
Pressure: 29.88"   Gusts: NA
Location:  38.76°N, 76.91°W
Report Text: KADW 231058Z AUTO 31013KT 10SM OVC032 11/06 A2988 RMK AO2 SLP125 T01120059 $
Loading
Personal Weather Stations






























Interactive Weather Map
Tropical Storm Tracking
New forecast layout! Learn more

10-Day Weather Forecast

Advertisements
Track Severe Weather on mobile